sensor_id;sensor_type;location;lat;lon;timestamp;temperature;humidity
28823;DHT22;15961;54.678;9.110;2023-04-01T00:00:59;7.50;99.90
28823;DHT22;15961;54.678;9.110;2023-04-01T00:03:26;7.50;99.90
28823;DHT22;15961;54.678;9.110;2023-04-01T00:05:57;7.50;99.90
28823;DHT22;15961;54.678;9.110;2023-04-01T00:08:23;7.40;99.90
28823;DHT22;15961;54.678;9.110;2023-04-01T00:10:52;7.40;99.90
28823;DHT22;15961;54.678;9.110;2023-04-01T00:13:18;7.40;99.90
28823;DHT22;15961;54.678;9.110;2023-04-01T00:15:44;7.30;99.90
28823;DHT22;15961;54.678;9.110;2023-04-01T00:18:10;7.30;99.90
28823;DHT22;15961;54.678;9.110;2023-04-01T00:20:39;7.20;99.90
28823;DHT22;15961;54.678;9.110;2023-04-01T00:23:07;7.10;99.90
28823;DHT22;15961;54.678;9.110;2023-04-01T00:25:33;7.10;99.90
28823;DHT22;15961;54.678;9.110;2023-04-01T00:27:58;7.10;99.90
28823;DHT22;15961;54.678;9.110;2023-04-01T00:30:33;7.10;99.90
28823;DHT22;15961;54.678;9.110;2023-04-01T00:33:00;7.20;99.90
28823;DHT22;15961;54.678;9.110;2023-04-01T00:35:29;7.00;99.90
28823;DHT22;15961;54.678;9.110;2023-04-01T00:37:55;6.90;99.90
28823;DHT22;15961;54.678;9.110;2023-04-01T00:40:29;6.90;99.90
28823;DHT22;15961;54.678;9.110;2023-04-01T00:42:55;6.80;99.90
28823;DHT22;15961;54.678;9.110;2023-04-01T00:47:55;6.80;99.90
28823;DHT22;15961;54.678;9.110;2023-04-01T00:50:22;6.80;99.90
28823;DHT22;15961;54.678;9.110;2023-04-01T00:52:49;6.80;99.90
28823;DHT22;15961;54.678;9.110;2023-04-01T00:55:16;6.80;99.90
28823;DHT22;15961;54.678;9.110;2023-04-01T00:57:45;6.80;99.90
28823;DHT22;15961;54.678;9.110;2023-04-01T01:00:12;6.80;99.90
28823;DHT22;15961;54.678;9.110;2023-04-01T01:02:41;6.70;99.90
28823;DHT22;15961;54.678;9.110;2023-04-01T01:05:13;6.70;99.90
28823;DHT22;15961;54.678;9.110;2023-04-01T01:08:00;6.60;99.90
28823;DHT22;15961;54.678;9.110;2023-04-01T01:10:31;6.60;99.90
28823;DHT22;15961;54.678;9.110;2023-04-01T01:13:10;6.60;99.90
28823;DHT22;15961;54.678;9.110;2023-04-01T01:15:45;6.60;99.90
28823;DHT22;15961;54.678;9.110;2023-04-01T01:18:42;6.50;99.90
28823;DHT22;15961;54.678;9.110;2023-04-01T01:24:27;6.40;99.90
28823;DHT22;15961;54.678;9.110;2023-04-01T01:27:02;6.40;99.90
28823;DHT22;15961;54.678;9.110;2023-04-01T01:35:16;6.40;99.90
28823;DHT22;15961;54.678;9.110;2023-04-01T01:37:45;6.40;99.90
28823;DHT22;15961;54.678;9.110;2023-04-01T01:40:13;6.30;99.90
28823;DHT22;15961;54.678;9.110;2023-04-01T01:42:44;6.30;99.90
28823;DHT22;15961;54.678;9.110;2023-04-01T01:45:13;6.20;99.90
28823;DHT22;15961;54.678;9.110;2023-04-01T01:47:41;6.20;99.90
28823;DHT22;15961;54.678;9.110;2023-04-01T01:50:08;6.20;99.90
28823;DHT22;15961;54.678;9.110;2023-04-01T01:52:34;6.10;99.90
28823;DHT22;15961;54.678;9.110;2023-04-01T01:55:03;6.10;99.90
28823;DHT22;15961;54.678;9.110;2023-04-01T01:57:32;6.10;99.90
28823;DHT22;15961;54.678;9.110;2023-04-01T02:00:07;6.10;99.90
28823;DHT22;15961;54.678;9.110;2023-04-01T02:02:40;6.10;99.90
28823;DHT22;15961;54.678;9.110;2023-04-01T02:05:08;6.00;99.90
28823;DHT22;15961;54.678;9.110;2023-04-01T02:07:35;6.00;99.90
28823;DHT22;15961;54.678;9.110;2023-04-01T02:10:03;6.00;99.90
28823;DHT22;15961;54.678;9.110;2023-04-01T02:12:30;6.00;99.90
28823;DHT22;15961;54.678;9.110;2023-04-01T02:15:08;5.90;99.90
28823;DHT22;15961;54.678;9.110;2023-04-01T02:17:38;5.90;99.90
28823;DHT22;15961;54.678;9.110;2023-04-01T02:20:20;5.90;99.90
28823;DHT22;15961;54.678;9.110;2023-04-01T02:22:51;5.90;99.90
28823;DHT22;15961;54.678;9.110;2023-04-01T02:25:22;5.80;99.90
28823;DHT22;15961;54.678;9.110;2023-04-01T02:27:48;5.80;99.90
28823;DHT22;15961;54.678;9.110;2023-04-01T02:30:16;5.80;99.90
28823;DHT22;15961;54.678;9.110;2023-04-01T02:32:42;5.80;99.90
28823;DHT22;15961;54.678;9.110;2023-04-01T02:35:13;5.80;99.90
28823;DHT22;15961;54.678;9.110;2023-04-01T02:37:39;5.70;99.90
28823;DHT22;15961;54.678;9.110;2023-04-01T02:40:13;5.70;99.90
28823;DHT22;15961;54.678;9.110;2023-04-01T02:42:39;5.70;99.90
28823;DHT22;15961;54.678;9.110;2023-04-01T02:45:05;5.70;99.90
28823;DHT22;15961;54.678;9.110;2023-04-01T02:47:31;5.70;99.90
28823;DHT22;15961;54.678;9.110;2023-04-01T02:49:57;5.60;99.90
28823;DHT22;15961;54.678;9.110;2023-04-01T02:52:26;5.60;99.90
28823;DHT22;15961;54.678;9.110;2023-04-01T02:54:52;5.60;99.90
28823;DHT22;15961;54.678;9.110;2023-04-01T02:57:17;5.50;99.90
28823;DHT22;15961;54.678;9.110;2023-04-01T02:59:43;5.50;99.90
28823;DHT22;15961;54.678;9.110;2023-04-01T03:02:08;5.50;99.90
28823;DHT22;15961;54.678;9.110;2023-04-01T03:04:34;5.50;99.90
28823;DHT22;15961;54.678;9.110;2023-04-01T03:07:00;5.40;99.90
28823;DHT22;15961;54.678;9.110;2023-04-01T03:09:27;5.40;99.90
28823;DHT22;15961;54.678;9.110;2023-04-01T03:11:54;5.40;99.90
28823;DHT22;15961;54.678;9.110;2023-04-01T03:14:19;5.40;99.90
28823;DHT22;15961;54.678;9.110;2023-04-01T03:16:45;5.40;99.90
28823;DHT22;15961;54.678;9.110;2023-04-01T03:19:11;5.40;99.90
28823;DHT22;15961;54.678;9.110;2023-04-01T03:21:36;5.40;99.90
28823;DHT22;15961;54.678;9.110;2023-04-01T03:24:02;5.40;99.90
28823;DHT22;15961;54.678;9.110;2023-04-01T03:26:28;5.40;99.90
28823;DHT22;15961;54.678;9.110;2023-04-01T03:28:53;5.30;99.90
28823;DHT22;15961;54.678;9.110;2023-04-01T03:31:22;5.30;99.90
28823;DHT22;15961;54.678;9.110;2023-04-01T03:33:49;5.30;99.90
28823;DHT22;15961;54.678;9.110;2023-04-01T03:36:15;5.30;99.90
28823;DHT22;15961;54.678;9.110;2023-04-01T03:38:41;5.20;99.90
28823;DHT22;15961;54.678;9.110;2023-04-01T03:41:12;5.20;99.90
28823;DHT22;15961;54.678;9.110;2023-04-01T03:43:37;5.20;99.90
28823;DHT22;15961;54.678;9.110;2023-04-01T03:46:03;5.10;99.90
28823;DHT22;15961;54.678;9.110;2023-04-01T03:48:29;5.10;99.90
28823;DHT22;15961;54.678;9.110;2023-04-01T03:50:54;5.10;99.90
28823;DHT22;15961;54.678;9.110;2023-04-01T03:55:47;5.10;99.90
28823;DHT22;15961;54.678;9.110;2023-04-01T03:58:12;5.10;99.90
28823;DHT22;15961;54.678;9.110;2023-04-01T04:00:38;5.00;99.90
28823;DHT22;15961;54.678;9.110;2023-04-01T04:03:13;5.00;99.90
28823;DHT22;15961;54.678;9.110;2023-04-01T04:05:49;5.00;99.90
28823;DHT22;15961;54.678;9.110;2023-04-01T04:08:15;5.00;99.90
28823;DHT22;15961;54.678;9.110;2023-04-01T04:10:41;5.00;99.90
28823;DHT22;15961;54.678;9.110;2023-04-01T04:13:07;5.00;99.90
28823;DHT22;15961;54.678;9.110;2023-04-01T04:15:32;4.90;99.90
28823;DHT22;15961;54.678;9.110;2023-04-01T04:17:58;4.90;99.90
28823;DHT22;15961;54.678;9.110;2023-04-01T04:20:24;4.90;99.90
28823;DHT22;15961;54.678;9.110;2023-04-01T04:22:49;4.90;99.90
28823;DHT22;15961;54.678;9.110;2023-04-01T04:25:15;4.90;99.90
28823;DHT22;15961;54.678;9.110;2023-04-01T04:27:41;4.90;99.90
28823;DHT22;15961;54.678;9.110;2023-04-01T04:30:07;4.90;99.90
28823;DHT22;15961;54.678;9.110;2023-04-01T04:32:33;4.80;99.90
28823;DHT22;15961;54.678;9.110;2023-04-01T04:34:58;4.80;99.90
28823;DHT22;15961;54.678;9.110;2023-04-01T04:37:24;4.80;99.90
28823;DHT22;15961;54.678;9.110;2023-04-01T04:39:51;4.80;99.90
28823;DHT22;15961;54.678;9.110;2023-04-01T04:42:20;4.80;99.90
28823;DHT22;15961;54.678;9.110;2023-04-01T04:44:45;4.80;99.90
28823;DHT22;15961;54.678;9.110;2023-04-01T04:47:11;4.80;99.90
28823;DHT22;15961;54.678;9.110;2023-04-01T04:49:36;4.70;99.90
28823;DHT22;15961;54.678;9.110;2023-04-01T04:52:04;4.80;99.90
28823;DHT22;15961;54.678;9.110;2023-04-01T04:54:30;4.70;99.90
28823;DHT22;15961;54.678;9.110;2023-04-01T04:56:56;4.70;99.90
28823;DHT22;15961;54.678;9.110;2023-04-01T04:59:21;4.70;99.90
28823;DHT22;15961;54.678;9.110;2023-04-01T05:01:47;4.70;99.90
28823;DHT22;15961;54.678;9.110;2023-04-01T05:04:12;4.60;99.90
28823;DHT22;15961;54.678;9.110;2023-04-01T05:06:38;4.60;99.90
28823;DHT22;15961;54.678;9.110;2023-04-01T05:09:03;4.60;99.90
28823;DHT22;15961;54.678;9.110;2023-04-01T05:11:29;4.60;99.90
28823;DHT22;15961;54.678;9.110;2023-04-01T05:13:58;4.70;99.90
28823;DHT22;15961;54.678;9.110;2023-04-01T05:16:23;4.60;99.90
28823;DHT22;15961;54.678;9.110;2023-04-01T05:18:49;4.60;99.90
28823;DHT22;15961;54.678;9.110;2023-04-01T05:21:15;4.60;99.90
28823;DHT22;15961;54.678;9.110;2023-04-01T05:23:41;4.60;99.90
28823;DHT22;15961;54.678;9.110;2023-04-01T05:26:33;4.60;99.90
28823;DHT22;15961;54.678;9.110;2023-04-01T05:28:59;4.60;99.90
28823;DHT22;15961;54.678;9.110;2023-04-01T05:31:24;4.50;99.90
28823;DHT22;15961;54.678;9.110;2023-04-01T05:33:51;4.60;99.90
28823;DHT22;15961;54.678;9.110;2023-04-01T05:36:16;4.70;99.90
28823;DHT22;15961;54.678;9.110;2023-04-01T05:38:42;4.60;99.90
28823;DHT22;15961;54.678;9.110;2023-04-01T05:41:09;4.60;99.90
28823;DHT22;15961;54.678;9.110;2023-04-01T05:43:39;4.60;99.90
28823;DHT22;15961;54.678;9.110;2023-04-01T05:46:05;4.50;99.90
28823;DHT22;15961;54.678;9.110;2023-04-01T05:48:30;4.50;99.90
28823;DHT22;15961;54.678;9.110;2023-04-01T05:50:56;4.50;99.90
28823;DHT22;15961;54.678;9.110;2023-04-01T05:53:21;4.50;99.90
28823;DHT22;15961;54.678;9.110;2023-04-01T05:55:47;4.60;99.90
28823;DHT22;15961;54.678;9.110;2023-04-01T05:58:15;4.50;99.90
28823;DHT22;15961;54.678;9.110;2023-04-01T06:00:41;4.50;99.90
28823;DHT22;15961;54.678;9.110;2023-04-01T06:03:06;4.50;99.90
28823;DHT22;15961;54.678;9.110;2023-04-01T06:05:41;4.60;99.90
28823;DHT22;15961;54.678;9.110;2023-04-01T06:08:16;4.60;99.90
28823;DHT22;15961;54.678;9.110;2023-04-01T06:13:42;4.60;99.90
28823;DHT22;15961;54.678;9.110;2023-04-01T06:16:32;4.60;99.90
28823;DHT22;15961;54.678;9.110;2023-04-01T06:36:09;4.70;99.90
28823;DHT22;15961;54.678;9.110;2023-04-01T06:41:58;4.80;99.90
28823;DHT22;15961;54.678;9.110;2023-04-01T06:44:41;4.80;99.90
28823;DHT22;15961;54.678;9.110;2023-04-01T06:55:41;4.90;99.90
28823;DHT22;15961;54.678;9.110;2023-04-01T06:58:21;4.90;99.90
28823;DHT22;15961;54.678;9.110;2023-04-01T07:00:53;4.90;99.90
28823;DHT22;15961;54.678;9.110;2023-04-01T07:03:40;5.00;99.90
28823;DHT22;15961;54.678;9.110;2023-04-01T07:06:14;5.00;99.90
28823;DHT22;15961;54.678;9.110;2023-04-01T07:08:43;4.90;99.90
28823;DHT22;15961;54.678;9.110;2023-04-01T07:11:11;5.00;99.90
28823;DHT22;15961;54.678;9.110;2023-04-01T07:16:20;5.00;99.90
28823;DHT22;15961;54.678;9.110;2023-04-01T07:18:52;5.00;99.90
28823;DHT22;15961;54.678;9.110;2023-04-01T07:21:27;5.00;99.90
28823;DHT22;15961;54.678;9.110;2023-04-01T07:23:58;5.10;99.90
28823;DHT22;15961;54.678;9.110;2023-04-01T07:26:26;5.00;99.90
28823;DHT22;15961;54.678;9.110;2023-04-01T07:28:53;5.00;99.90
28823;DHT22;15961;54.678;9.110;2023-04-01T07:34:19;5.00;99.90
28823;DHT22;15961;54.678;9.110;2023-04-01T07:37:14;5.00;99.90
28823;DHT22;15961;54.678;9.110;2023-04-01T07:39:44;5.10;99.90
28823;DHT22;15961;54.678;9.110;2023-04-01T07:45:27;5.10;99.90
28823;DHT22;15961;54.678;9.110;2023-04-01T07:50:59;5.10;99.90
28823;DHT22;15961;54.678;9.110;2023-04-01T08:04:53;5.10;99.90
28823;DHT22;15961;54.678;9.110;2023-04-01T08:08:08;5.10;99.90
28823;DHT22;15961;54.678;9.110;2023-04-01T08:10:48;5.20;99.90
28823;DHT22;15961;54.678;9.110;2023-04-01T08:21:36;5.10;99.90
28823;DHT22;15961;54.678;9.110;2023-04-01T08:24:17;5.10;99.90
28823;DHT22;15961;54.678;9.110;2023-04-01T08:26:47;5.10;99.90
28823;DHT22;15961;54.678;9.110;2023-04-01T08:32:35;4.90;99.90
28823;DHT22;15961;54.678;9.110;2023-04-01T08:35:22;4.90;99.90
28823;DHT22;15961;54.678;9.110;2023-04-01T08:37:50;4.80;99.90
28823;DHT22;15961;54.678;9.110;2023-04-01T08:43:09;4.90;99.90
28823;DHT22;15961;54.678;9.110;2023-04-01T08:45:45;4.90;99.90
28823;DHT22;15961;54.678;9.110;2023-04-01T08:56:26;4.90;99.90
28823;DHT22;15961;54.678;9.110;2023-04-01T08:59:27;4.80;99.90
28823;DHT22;15961;54.678;9.110;2023-04-01T09:21:09;4.90;99.90
28823;DHT22;15961;54.678;9.110;2023-04-01T09:29:30;4.90;99.90
28823;DHT22;15961;54.678;9.110;2023-04-01T09:32:07;4.80;99.90
28823;DHT22;15961;54.678;9.110;2023-04-01T09:34:52;4.80;99.90
28823;DHT22;15961;54.678;9.110;2023-04-01T09:42:42;4.80;99.90
28823;DHT22;15961;54.678;9.110;2023-04-01T10:02:33;4.90;99.90
28823;DHT22;15961;54.678;9.110;2023-04-01T10:11:20;4.90;99.90
28823;DHT22;15961;54.678;9.110;2023-04-01T10:19:27;4.80;99.90
28823;DHT22;15961;54.678;9.110;2023-04-01T10:28:00;4.90;99.90
28823;DHT22;15961;54.678;9.110;2023-04-01T10:31:05;4.90;99.90
28823;DHT22;15961;54.678;9.110;2023-04-01T10:36:53;4.80;99.90
28823;DHT22;15961;54.678;9.110;2023-04-01T10:51:01;4.70;99.90
28823;DHT22;15961;54.678;9.110;2023-04-01T10:54:00;4.70;99.90
28823;DHT22;15961;54.678;9.110;2023-04-01T10:59:45;4.80;99.90
28823;DHT22;15961;54.678;9.110;2023-04-01T11:05:19;4.60;99.90
28823;DHT22;15961;54.678;9.110;2023-04-01T11:24:41;4.80;99.90
28823;DHT22;15961;54.678;9.110;2023-04-01T11:30:41;4.70;99.90
28823;DHT22;15961;54.678;9.110;2023-04-01T11:33:14;4.70;99.90
28823;DHT22;15961;54.678;9.110;2023-04-01T11:36:39;4.70;99.90
28823;DHT22;15961;54.678;9.110;2023-04-01T11:41:48;4.70;99.90
28823;DHT22;15961;54.678;9.110;2023-04-01T11:44:23;4.90;99.90
28823;DHT22;15961;54.678;9.110;2023-04-01T11:47:27;5.00;99.90
28823;DHT22;15961;54.678;9.110;2023-04-01T12:01:59;5.50;99.90
28823;DHT22;15961;54.678;9.110;2023-04-01T12:10:20;5.60;99.90
28823;DHT22;15961;54.678;9.110;2023-04-01T12:13:42;5.50;99.90
28823;DHT22;15961;54.678;9.110;2023-04-01T12:30:24;5.90;99.90
28823;DHT22;15961;54.678;9.110;2023-04-01T12:33:10;5.90;99.90
28823;DHT22;15961;54.678;9.110;2023-04-01T12:35:55;5.80;99.90
28823;DHT22;15961;54.678;9.110;2023-04-01T12:38:48;5.70;99.90
28823;DHT22;15961;54.678;9.110;2023-04-01T12:41:36;5.60;99.90
28823;DHT22;15961;54.678;9.110;2023-04-01T12:52:58;5.40;99.90
28823;DHT22;15961;54.678;9.110;2023-04-01T12:58:11;5.50;99.90
28823;DHT22;15961;54.678;9.110;2023-04-01T13:07:36;5.40;99.90
28823;DHT22;15961;54.678;9.110;2023-04-01T13:19:01;5.10;99.90
28823;DHT22;15961;54.678;9.110;2023-04-01T13:24:50;5.10;99.90
28823;DHT22;15961;54.678;9.110;2023-04-01T13:27:44;5.10;99.90
28823;DHT22;15961;54.678;9.110;2023-04-01T13:33:08;5.10;99.90
28823;DHT22;15961;54.678;9.110;2023-04-01T13:43:51;5.20;99.90
28823;DHT22;15961;54.678;9.110;2023-04-01T13:49:28;5.20;99.90
28823;DHT22;15961;54.678;9.110;2023-04-01T14:07:11;5.80;99.90
28823;DHT22;15961;54.678;9.110;2023-04-01T14:09:57;5.80;99.90
28823;DHT22;15961;54.678;9.110;2023-04-01T14:21:38;5.60;99.90
28823;DHT22;15961;54.678;9.110;2023-04-01T14:29:58;5.60;99.90
28823;DHT22;15961;54.678;9.110;2023-04-01T14:35:32;5.70;99.90
28823;DHT22;15961;54.678;9.110;2023-04-01T14:38:06;5.90;99.90
28823;DHT22;15961;54.678;9.110;2023-04-01T14:43:45;5.90;99.90
28823;DHT22;15961;54.678;9.110;2023-04-01T14:49:00;6.60;99.90
28823;DHT22;15961;54.678;9.110;2023-04-01T14:51:33;7.20;99.90
28823;DHT22;15961;54.678;9.110;2023-04-01T14:54:20;7.10;99.90
28823;DHT22;15961;54.678;9.110;2023-04-01T14:57:41;6.90;99.90
28823;DHT22;15961;54.678;9.110;2023-04-01T15:00:05;8.20;99.90
28823;DHT22;15961;54.678;9.110;2023-04-01T15:02:48;9.40;99.90
28823;DHT22;15961;54.678;9.110;2023-04-01T15:05:35;9.70;99.90
28823;DHT22;15961;54.678;9.110;2023-04-01T15:08:25;10.00;99.90
28823;DHT22;15961;54.678;9.110;2023-04-01T15:11:01;9.80;99.90
28823;DHT22;15961;54.678;9.110;2023-04-01T15:24:22;9.10;99.90
28823;DHT22;15961;54.678;9.110;2023-04-01T15:27:11;9.40;99.90
28823;DHT22;15961;54.678;9.110;2023-04-01T15:29:52;9.50;99.90
28823;DHT22;15961;54.678;9.110;2023-04-01T15:32:38;9.70;99.90
28823;DHT22;15961;54.678;9.110;2023-04-01T15:35:21;10.20;99.90
28823;DHT22;15961;54.678;9.110;2023-04-01T15:51:38;9.70;99.90
28823;DHT22;15961;54.678;9.110;2023-04-01T15:54:51;9.70;99.90
28823;DHT22;15961;54.678;9.110;2023-04-01T15:57:36;9.90;99.90
28823;DHT22;15961;54.678;9.110;2023-04-01T16:02:51;9.80;99.90
28823;DHT22;15961;54.678;9.110;2023-04-01T16:10:58;9.80;99.90
28823;DHT22;15961;54.678;9.110;2023-04-01T16:16:26;9.80;99.90
28823;DHT22;15961;54.678;9.110;2023-04-01T16:19:30;9.70;99.90
28823;DHT22;15961;54.678;9.110;2023-04-01T16:22:25;9.60;99.90
28823;DHT22;15961;54.678;9.110;2023-04-01T16:33:34;9.60;99.90
28823;DHT22;15961;54.678;9.110;2023-04-01T16:36:41;9.40;99.90
28823;DHT22;15961;54.678;9.110;2023-04-01T16:39:29;9.20;99.90
28823;DHT22;15961;54.678;9.110;2023-04-01T16:44:55;8.70;99.90
28823;DHT22;15961;54.678;9.110;2023-04-01T16:47:30;8.70;99.90
28823;DHT22;15961;54.678;9.110;2023-04-01T16:50:07;9.00;99.90
28823;DHT22;15961;54.678;9.110;2023-04-01T16:55:55;8.40;99.90
28823;DHT22;15961;54.678;9.110;2023-04-01T16:58:41;7.80;99.90
28823;DHT22;15961;54.678;9.110;2023-04-01T17:07:15;7.10;99.90
28823;DHT22;15961;54.678;9.110;2023-04-01T17:25:23;4.80;99.90
28823;DHT22;15961;54.678;9.110;2023-04-01T17:49:37;3.90;99.90
28823;DHT22;15961;54.678;9.110;2023-04-01T18:00:47;3.50;99.90
28823;DHT22;15961;54.678;9.110;2023-04-01T18:06:55;3.30;99.90
28823;DHT22;15961;54.678;9.110;2023-04-01T18:09:32;3.20;99.90
28823;DHT22;15961;54.678;9.110;2023-04-01T18:23:00;3.00;99.90
28823;DHT22;15961;54.678;9.110;2023-04-01T18:25:37;2.90;99.90
28823;DHT22;15961;54.678;9.110;2023-04-01T18:28:35;2.80;99.90
28823;DHT22;15961;54.678;9.110;2023-04-01T18:34:36;2.60;99.90
28823;DHT22;15961;54.678;9.110;2023-04-01T18:36:44;2.70;99.90
28823;DHT22;15961;54.678;9.110;2023-04-01T18:39:22;2.70;99.90
28823;DHT22;15961;54.678;9.110;2023-04-01T18:41:56;2.60;99.90
28823;DHT22;15961;54.678;9.110;2023-04-01T18:44:56;2.60;99.90
28823;DHT22;15961;54.678;9.110;2023-04-01T18:50:41;2.70;99.90
28823;DHT22;15961;54.678;9.110;2023-04-01T18:53:31;2.70;99.90
28823;DHT22;15961;54.678;9.110;2023-04-01T18:56:05;2.60;99.90
28823;DHT22;15961;54.678;9.110;2023-04-01T18:58:37;2.60;99.90
28823;DHT22;15961;54.678;9.110;2023-04-01T19:01:15;2.60;99.90
28823;DHT22;15961;54.678;9.110;2023-04-01T19:04:03;2.60;99.90
28823;DHT22;15961;54.678;9.110;2023-04-01T19:09:24;2.60;99.90
28823;DHT22;15961;54.678;9.110;2023-04-01T19:12:03;2.30;99.90
28823;DHT22;15961;54.678;9.110;2023-04-01T19:15:32;2.40;99.90
28823;DHT22;15961;54.678;9.110;2023-04-01T19:20:37;2.30;99.90
28823;DHT22;15961;54.678;9.110;2023-04-01T19:26:09;2.20;99.90
28823;DHT22;15961;54.678;9.110;2023-04-01T19:29:23;2.20;99.90
28823;DHT22;15961;54.678;9.110;2023-04-01T19:32:09;2.20;99.90
28823;DHT22;15961;54.678;9.110;2023-04-01T19:38:03;2.00;99.90
28823;DHT22;15961;54.678;9.110;2023-04-01T19:43:28;2.10;99.90
28823;DHT22;15961;54.678;9.110;2023-04-01T19:46:41;1.80;99.90
28823;DHT22;15961;54.678;9.110;2023-04-01T19:48:59;1.80;99.90
28823;DHT22;15961;54.678;9.110;2023-04-01T19:51:52;1.90;99.90
28823;DHT22;15961;54.678;9.110;2023-04-01T20:02:42;1.40;99.90
28823;DHT22;15961;54.678;9.110;2023-04-01T20:08:32;1.30;99.90
28823;DHT22;15961;54.678;9.110;2023-04-01T20:13:46;1.20;99.90
28823;DHT22;15961;54.678;9.110;2023-04-01T20:16:14;1.30;99.90
28823;DHT22;15961;54.678;9.110;2023-04-01T20:18:58;1.30;99.90
28823;DHT22;15961;54.678;9.110;2023-04-01T20:21:37;1.30;99.90
28823;DHT22;15961;54.678;9.110;2023-04-01T20:24:17;1.40;99.90
28823;DHT22;15961;54.678;9.110;2023-04-01T20:26:49;1.40;99.90
28823;DHT22;15961;54.678;9.110;2023-04-01T20:34:59;1.30;99.90
28823;DHT22;15961;54.678;9.110;2023-04-01T20:38:22;1.30;99.90
28823;DHT22;15961;54.678;9.110;2023-04-01T20:40:40;1.20;99.90
28823;DHT22;15961;54.678;9.110;2023-04-01T20:43:23;1.10;99.90
28823;DHT22;15961;54.678;9.110;2023-04-01T20:46:16;1.00;99.90
28823;DHT22;15961;54.678;9.110;2023-04-01T20:48:57;0.90;99.90
28823;DHT22;15961;54.678;9.110;2023-04-01T20:51:30;0.90;99.90
28823;DHT22;15961;54.678;9.110;2023-04-01T20:57:05;0.80;99.90
28823;DHT22;15961;54.678;9.110;2023-04-01T21:02:48;0.80;99.90
28823;DHT22;15961;54.678;9.110;2023-04-01T21:10:37;0.90;99.90
28823;DHT22;15961;54.678;9.110;2023-04-01T21:25:19;0.90;99.90
28823;DHT22;15961;54.678;9.110;2023-04-01T21:28:12;0.90;99.90
28823;DHT22;15961;54.678;9.110;2023-04-01T21:33:15;0.90;99.90
28823;DHT22;15961;54.678;9.110;2023-04-01T21:42:09;1.00;99.90
28823;DHT22;15961;54.678;9.110;2023-04-01T22:01:40;1.40;99.90
28823;DHT22;15961;54.678;9.110;2023-04-01T22:07:19;1.50;99.90
28823;DHT22;15961;54.678;9.110;2023-04-01T22:12:54;1.40;99.90
28823;DHT22;15961;54.678;9.110;2023-04-01T22:15:49;1.50;99.90
28823;DHT22;15961;54.678;9.110;2023-04-01T22:26:24;1.40;99.90
28823;DHT22;15961;54.678;9.110;2023-04-01T22:28:57;1.40;99.90
28823;DHT22;15961;54.678;9.110;2023-04-01T22:31:30;1.30;99.90
28823;DHT22;15961;54.678;9.110;2023-04-01T22:34:19;1.40;99.90
28823;DHT22;15961;54.678;9.110;2023-04-01T22:37:12;1.40;99.90
28823;DHT22;15961;54.678;9.110;2023-04-01T22:39:46;1.30;99.90
28823;DHT22;15961;54.678;9.110;2023-04-01T22:42:46;1.30;99.90
28823;DHT22;15961;54.678;9.110;2023-04-01T22:50:43;1.20;99.90
28823;DHT22;15961;54.678;9.110;2023-04-01T22:55:40;1.10;99.90
28823;DHT22;15961;54.678;9.110;2023-04-01T22:58:10;1.10;99.90
28823;DHT22;15961;54.678;9.110;2023-04-01T23:00:45;1.00;99.90
28823;DHT22;15961;54.678;9.110;2023-04-01T23:03:20;1.00;99.90
28823;DHT22;15961;54.678;9.110;2023-04-01T23:05:56;0.90;99.90
28823;DHT22;15961;54.678;9.110;2023-04-01T23:11:54;0.50;99.90
28823;DHT22;15961;54.678;9.110;2023-04-01T23:14:10;0.50;99.90
28823;DHT22;15961;54.678;9.110;2023-04-01T23:19:36;0.50;99.90
28823;DHT22;15961;54.678;9.110;2023-04-01T23:22:34;0.50;99.90
28823;DHT22;15961;54.678;9.110;2023-04-01T23:33:27;0.30;99.90
28823;DHT22;15961;54.678;9.110;2023-04-01T23:35:54;0.10;99.90
28823;DHT22;15961;54.678;9.110;2023-04-01T23:38:22;0.10;99.90
28823;DHT22;15961;54.678;9.110;2023-04-01T23:40:50;0.20;99.90
28823;DHT22;15961;54.678;9.110;2023-04-01T23:43:32;0.20;99.90
28823;DHT22;15961;54.678;9.110;2023-04-01T23:46:02;0.10;99.90
28823;DHT22;15961;54.678;9.110;2023-04-01T23:48:36;0.00;99.90
28823;DHT22;15961;54.678;9.110;2023-04-01T23:51:03;0.00;99.90
28823;DHT22;15961;54.678;9.110;2023-04-01T23:53:34;0.00;99.90
28823;DHT22;15961;54.678;9.110;2023-04-01T23:56:02;0.00;99.90
28823;DHT22;15961;54.678;9.110;2023-04-01T23:58:49;0.00;99.90
